Time;durP1;ratioP1;P1;durP2;ratioP2;P2;SDS_P1;SDS_P2;PMS_P1;PMS_P2;Temp;Humidity;BMP_temperature;BMP_pressure;BME280_temperature;BME280_humidity;BME280_pressure;Samples;Min_cycle;Max_cycle;Signal;HPM_P1;HPM_P2
2023/05/22 00:02:21;;;;;;;18.10;16.52;;;14.10;99.90;;;15.06;96.48;97516.84;5211280;28;20225;-68
2023/05/22 00:04:57;;;;;;;16.38;14.93;;;14.00;99.90;;;14.99;97.01;97514.88;5221661;28;20351;-68
2023/05/22 00:07:30;;;;;;;16.95;15.55;;;14.00;99.90;;;14.95;96.82;97508.75;5220609;28;20228;-68
2023/05/22 00:10:04;;;;;;;17.20;15.70;;;14.00;99.90;;;14.96;97.17;97514.78;5220175;28;20245;-68
2023/05/22 00:12:38;;;;;;;16.85;15.25;;;14.00;99.90;;;14.93;97.27;97509.53;5221896;28;20317;-68
2023/05/22 00:15:12;;;;;;;17.52;16.02;;;14.00;99.90;;;14.86;96.84;97511.91;5217597;28;20251;-68
2023/05/22 00:17:46;;;;;;;16.80;15.43;;;13.90;99.90;;;14.84;97.44;97516.09;5220344;28;20277;-68
2023/05/22 00:20:22;;;;;;;17.15;15.65;;;13.90;99.90;;;14.78;97.33;97513.31;5222663;28;20228;-68
2023/05/22 00:22:56;;;;;;;17.85;16.23;;;13.80;99.90;;;14.77;97.71;97516.72;5220892;28;20221;-68
2023/05/22 00:25:30;;;;;;;17.30;15.80;;;13.80;99.90;;;14.79;98.01;97504.81;5221201;28;20746;-68
2023/05/22 00:28:03;;;;;;;16.83;15.43;;;13.80;99.90;;;14.74;98.46;97511.47;5218774;28;20275;-68
2023/05/22 00:30:37;;;;;;;17.45;15.85;;;13.80;99.90;;;14.71;98.05;97506.22;5222961;28;20295;-68
2023/05/22 00:33:11;;;;;;;18.58;16.98;;;13.70;99.90;;;14.64;99.01;97504.25;5220714;28;20224;-68
2023/05/22 00:35:46;;;;;;;19.10;17.25;;;13.70;99.90;;;14.59;98.75;97500.63;5220660;28;20243;-68
2023/05/22 00:38:31;;;;;;;17.38;15.98;;;13.60;99.90;;;14.58;98.71;97498.88;5218163;28;20282;-68
2023/05/22 00:41:05;;;;;;;17.33;15.75;;;13.60;99.90;;;14.49;98.61;97501.09;5219093;28;20224;-68
2023/05/22 00:43:39;;;;;;;16.20;14.90;;;13.50;99.90;;;14.48;98.31;97496.75;5218383;28;21085;-68
2023/05/22 00:46:13;;;;;;;17.80;16.25;;;13.40;99.90;;;14.48;99.29;97501.91;5216343;28;20247;-68
2023/05/22 00:48:46;;;;;;;18.05;16.50;;;13.40;99.90;;;14.47;98.47;97495.03;5222798;28;20216;-69
2023/05/22 00:51:22;;;;;;;18.13;16.38;;;13.50;99.90;;;14.46;98.09;97493.28;5222476;28;20685;-68
2023/05/22 00:53:55;;;;;;;17.88;16.38;;;13.50;99.90;;;14.42;98.67;97488.03;5220041;28;20216;-68
2023/05/22 00:56:28;;;;;;;17.48;15.88;;;13.50;99.90;;;14.43;99.04;97494.91;5221122;28;20244;-68
2023/05/22 00:59:03;;;;;;;17.83;16.13;;;13.50;99.90;;;14.37;98.56;97489.56;5224903;28;20275;-68
2023/05/22 01:01:40;;;;;;;18.13;16.50;;;13.50;99.90;;;14.35;98.43;97490.31;5221052;28;20707;-68
2023/05/22 01:04:14;;;;;;;17.25;15.75;;;13.40;99.90;;;14.34;99.10;97493.72;5224780;28;20229;-68
2023/05/22 01:06:49;;;;;;;17.38;15.88;;;13.40;99.90;;;14.27;99.68;97502.88;5220194;28;20221;-68
2023/05/22 01:09:22;;;;;;;17.48;15.98;;;13.40;99.90;;;14.25;98.54;97498.50;5219796;28;20313;-68
2023/05/22 01:12:01;;;;;;;17.13;15.57;;;13.30;99.90;;;14.15;98.81;97497.31;5220099;28;20307;-68
2023/05/22 01:14:44;;;;;;;17.58;16.02;;;13.20;99.90;;;14.16;99.05;97488.75;5223474;28;20229;-68
2023/05/22 01:17:23;;;;;;;17.95;16.20;;;13.20;99.90;;;14.14;98.41;97500.69;5219469;28;20282;-68
2023/05/22 01:20:13;;;;;;;17.00;15.50;;;13.20;99.90;;;14.11;98.89;97498.03;5223825;28;20232;-68
2023/05/22 01:23:21;;;;;;;17.30;15.60;;;13.10;99.90;;;14.09;98.88;97503.09;5224339;28;20221;-68
2023/05/22 01:26:22;;;;;;;16.58;14.90;;;13.10;99.90;;;14.08;98.32;97505.59;5222310;28;20711;-68
2023/05/22 01:29:34;;;;;;;17.52;15.93;;;13.10;99.90;;;14.05;98.81;97505.47;5218112;28;20279;-68
2023/05/22 01:32:10;;;;;;;17.40;15.80;;;13.10;99.90;;;14.06;98.65;97502.09;5224148;28;20225;-68
2023/05/22 01:34:45;;;;;;;17.90;16.20;;;13.10;99.90;;;14.00;98.49;97504.44;5225978;28;20266;-68
2023/05/22 01:37:20;;;;;;;18.65;16.98;;;13.10;99.90;;;13.92;100.00;97510.16;5221897;28;20303;-68
2023/05/22 01:39:54;;;;;;;17.45;15.80;;;13.00;99.90;;;13.95;98.46;97509.41;5220158;28;20638;-68
2023/05/22 01:42:28;;;;;;;18.88;17.15;;;13.00;99.90;;;13.75;100.00;97514.63;5230182;28;20232;-68
2023/05/22 01:45:01;;;;;;;18.77;16.98;;;12.90;99.90;;;13.69;100.00;97513.53;5214331;28;20771;-68
2023/05/22 01:47:36;;;;;;;17.63;16.05;;;12.90;99.90;;;13.76;100.00;97518.06;5219894;28;20314;-68
2023/05/22 01:50:10;;;;;;;17.95;16.55;;;12.90;99.90;;;13.81;100.00;97520.84;5225247;28;20224;-68
2023/05/22 01:52:54;;;;;;;18.52;16.90;;;12.90;99.90;;;13.82;100.00;97523.47;5223562;28;20302;-68
2023/05/22 01:55:34;;;;;;;17.95;16.35;;;12.90;99.90;;;13.83;100.00;97532.06;5223116;28;20274;-69
2023/05/22 01:58:18;;;;;;;17.95;16.38;;;12.90;99.90;;;13.83;100.00;97527.78;5222743;28;20224;-68
2023/05/22 02:00:53;;;;;;;18.73;17.08;;;12.90;99.90;;;13.80;100.00;97525.09;5217938;28;20225;-68
2023/05/22 02:03:31;;;;;;;17.30;15.80;;;12.80;99.90;;;13.76;99.50;97523.22;5230309;28;20223;-68
2023/05/22 02:06:08;;;;;;;18.00;16.35;;;12.80;99.90;;;13.77;99.50;97529.25;5223274;28;20232;-68
2023/05/22 02:08:43;;;;;;;18.52;16.83;;;12.80;99.90;;;13.75;100.00;97521.47;5225230;28;20233;-68
2023/05/22 02:11:17;;;;;;;18.55;16.90;;;12.80;99.90;;;13.74;99.99;97524.88;5215526;28;20245;-68
2023/05/22 02:13:51;;;;;;;18.55;16.92;;;12.80;99.90;;;13.76;99.86;97518.06;5226085;28;20708;-68
2023/05/22 02:16:24;;;;;;;18.27;16.58;;;12.80;99.90;;;13.68;100.00;97525.50;5219158;28;20271;-68
2023/05/22 02:19:05;;;;;;;17.67;16.10;;;12.70;99.90;;;13.65;100.00;97524.47;5220843;28;20251;-68
2023/05/22 02:21:38;;;;;;;18.45;16.80;;;12.70;99.90;;;13.60;100.00;97532.03;5220637;28;20227;-68
2023/05/22 02:24:11;;;;;;;17.50;16.00;;;12.60;99.90;;;13.57;100.00;97531.03;5219148;28;20228;-68
2023/05/22 02:26:46;;;;;;;18.25;16.60;;;12.60;99.90;;;13.57;100.00;97531.03;5223307;28;20233;-68
2023/05/22 02:29:19;;;;;;;17.98;16.33;;;12.60;99.90;;;13.50;100.00;97538.47;5219377;28;20228;-68
2023/05/22 02:31:54;;;;;;;18.98;17.17;;;12.60;99.90;;;13.47;100.00;97533.22;5220455;28;20217;-68
2023/05/22 02:34:30;;;;;;;18.90;17.23;;;12.50;99.90;;;13.44;100.00;97530.53;5218316;28;20224;-68
2023/05/22 02:37:03;;;;;;;18.50;16.77;;;12.50;99.90;;;13.38;100.00;97534.53;5219268;28;20224;-68
2023/05/22 02:39:36;;;;;;;18.95;17.35;;;12.50;99.90;;;13.40;100.00;97531.22;5218089;28;20217;-68
2023/05/22 02:42:10;;;;;;;18.83;17.13;;;12.60;99.90;;;13.39;100.00;97532.06;5225270;28;20278;-68
2023/05/22 02:44:43;;;;;;;18.95;17.25;;;12.50;99.90;;;13.39;100.00;97539.75;5222819;28;20221;-68
2023/05/22 02:47:16;;;;;;;18.58;16.90;;;12.50;99.90;;;13.38;100.00;97535.41;5223077;28;20226;-68
2023/05/22 02:49:51;;;;;;;18.13;16.52;;;12.60;99.90;;;13.38;100.00;97534.53;5220991;28;20846;-68
2023/05/22 02:52:24;;;;;;;20.75;18.85;;;12.60;99.90;;;13.32;100.00;97537.72;5218144;28;20282;-68
2023/05/22 02:54:58;;;;;;;18.98;17.17;;;12.50;99.90;;;13.37;100.00;97533.66;5224731;28;20275;-68
2023/05/22 02:57:31;;;;;;;19.50;17.70;;;12.60;99.90;;;13.37;100.00;97535.38;5221934;28;20642;-68
2023/05/22 03:00:07;;;;;;;19.38;17.58;;;12.50;99.90;;;13.32;100.00;97535.16;5222762;28;20782;-68
2023/05/22 03:02:40;;;;;;;19.92;18.13;;;12.50;99.90;;;13.38;100.00;97535.41;5220113;28;20220;-68
2023/05/22 03:05:16;;;;;;;18.70;17.00;;;12.60;99.90;;;13.42;100.00;97534.75;5219669;28;20217;-68
2023/05/22 03:07:49;;;;;;;17.90;16.40;;;12.50;99.90;;;13.45;100.00;97541.69;5220557;28;20604;-68
2023/05/22 03:10:23;;;;;;;18.65;17.05;;;12.50;99.90;;;13.41;100.00;97540.66;5220487;28;20653;-68
2023/05/22 03:12:56;;;;;;;23.27;21.13;;;12.40;99.90;;;13.34;100.00;97530.97;5220630;28;20225;-68
2023/05/22 03:15:30;;;;;;;19.58;17.77;;;12.50;99.90;;;13.31;100.00;97537.69;5216087;28;20700;-68
2023/05/22 03:18:03;;;;;;;18.33;16.73;;;12.40;99.90;;;13.27;100.00;97540.09;5225278;28;20233;-68
2023/05/22 03:20:38;;;;;;;19.48;17.70;;;12.40;99.90;;;13.31;100.00;97538.56;5216594;28;20229;-68
2023/05/22 03:23:12;;;;;;;19.70;18.00;;;12.40;99.90;;;13.30;100.00;97541.91;5220268;28;20230;-68
2023/05/22 03:25:45;;;;;;;20.67;18.58;;;12.40;99.90;;;13.34;100.00;97543.81;5224441;28;20248;-68
2023/05/22 03:28:18;;;;;;;20.42;18.67;;;12.40;99.90;;;13.28;100.00;97541.00;5223978;28;20225;-68
2023/05/22 03:30:52;;;;;;;20.35;18.45;;;12.40;99.90;;;13.22;100.00;97543.25;5218284;28;20312;-68
2023/05/22 03:33:25;;;;;;;19.20;17.40;;;12.40;99.90;;;13.25;100.00;97543.41;5217341;28;20229;-68
2023/05/22 03:36:00;;;;;;;19.98;18.15;;;12.50;99.90;;;13.27;100.00;97541.78;5221040;28;20228;-68
2023/05/22 03:38:33;;;;;;;19.52;17.75;;;12.50;99.90;;;13.33;100.00;97551.44;5220456;28;20604;-68
2023/05/22 03:41:06;;;;;;;18.63;17.02;;;12.50;99.90;;;13.41;100.00;97548.38;5219548;28;20705;-68
2023/05/22 03:43:39;;;;;;;18.80;16.98;;;12.50;99.90;;;13.39;100.00;97547.47;5228244;28;20587;-68
2023/05/22 03:46:16;;;;;;;18.65;17.02;;;12.50;99.90;;;13.33;100.00;97541.16;5211381;28;20605;-68
2023/05/22 03:48:50;;;;;;;18.35;16.63;;;12.40;99.90;;;13.33;100.00;97542.03;5214126;28;20729;-68
2023/05/22 03:51:24;;;;;;;18.10;16.50;;;12.40;99.90;;;13.36;100.00;97543.84;5214783;28;20229;-68
2023/05/22 03:53:57;;;;;;;19.83;17.88;;;12.50;99.90;;;13.42;100.00;97536.41;5217271;28;20303;-68
2023/05/22 03:56:30;;;;;;;19.48;17.75;;;12.60;99.90;;;13.47;100.00;97540.91;5218907;28;20247;-68
2023/05/22 03:59:04;;;;;;;20.33;18.45;;;12.60;99.90;;;13.51;100.00;97540.25;5221089;28;20229;-68
2023/05/22 04:01:38;;;;;;;19.80;17.98;;;12.70;99.90;;;13.60;100.00;97541.44;5214483;28;20234;-68
2023/05/22 04:04:11;;;;;;;20.27;18.40;;;12.70;99.90;;;13.64;100.00;97548.44;5217404;28;20656;-68
2023/05/22 04:06:46;;;;;;;19.60;17.80;;;12.70;99.90;;;13.62;100.00;97550.03;5216385;28;20225;-68
2023/05/22 04:09:19;;;;;;;19.15;17.35;;;12.80;99.90;;;13.75;100.00;97560.88;5214772;28;20221;-68
2023/05/22 04:11:53;;;;;;;19.05;17.38;;;12.80;99.90;;;13.79;100.00;97549.03;5216968;28;20249;-68
2023/05/22 04:14:26;;;;;;;18.63;16.83;;;12.80;99.90;;;13.75;100.00;97558.31;5216417;28;20228;-68
2023/05/22 04:16:59;;;;;;;18.85;17.15;;;12.80;99.90;;;13.86;100.00;97560.44;5212684;28;20221;-67
2023/05/22 04:19:33;;;;;;;19.48;17.63;;;12.90;99.90;;;13.94;100.00;97562.50;5215991;28;20244;-67
2023/05/22 04:22:07;;;;;;;19.80;18.00;;;12.90;99.90;;;13.97;100.00;97567.75;5217383;28;20303;-69
2023/05/22 04:24:41;;;;;;;18.17;16.58;;;13.00;99.90;;;14.11;99.47;97572.56;5210311;28;20260;-68
2023/05/22 04:27:14;;;;;;;18.85;16.95;;;13.10;99.90;;;14.19;99.66;97571.13;5212316;28;20218;-67
2023/05/22 04:29:49;;;;;;;17.90;16.17;;;13.10;99.90;;;14.24;98.70;97574.75;5219280;28;20275;-67
2023/05/22 04:32:22;;;;;;;18.65;17.05;;;13.10;99.90;;;14.30;97.57;97574.97;5214699;28;20228;-68
2023/05/22 04:34:57;;;;;;;17.10;15.65;;;13.20;99.90;;;14.31;97.41;97579.31;5222123;28;20483;-69
2023/05/22 04:37:31;;;;;;;19.38;17.58;;;13.30;99.90;;;14.35;96.55;97588.91;5216702;28;20221;-68
2023/05/22 04:40:07;;;;;;;19.17;17.48;;;13.30;99.90;;;14.35;96.93;97581.19;5222314;28;20251;-68
2023/05/22 04:42:43;;;;;;;18.00;16.30;;;13.40;99.90;;;14.52;96.31;97583.53;5217357;28;20221;-68
2023/05/22 04:45:18;;;;;;;19.45;17.63;;;13.40;99.90;;;14.52;96.58;97593.84;5223463;28;20521;-68
2023/05/22 04:47:52;;;;;;;18.67;17.02;;;13.50;99.90;;;14.55;97.20;97593.94;5225291;28;20584;-68
2023/05/22 04:50:25;;;;;;;19.30;17.63;;;13.50;99.90;;;14.59;96.85;97585.50;5218717;28;20234;-69
2023/05/22 04:53:02;;;;;;;18.88;17.08;;;13.50;99.90;;;14.62;96.63;97588.19;5223246;28;20838;-69
2023/05/22 04:55:36;;;;;;;19.77;18.02;;;13.60;99.90;;;14.65;95.98;97588.34;5221167;28;20220;-69
2023/05/22 04:58:09;;;;;;;19.35;17.55;;;13.60;99.90;;;14.70;96.09;97571.34;5224560;28;20225;-69
2023/05/22 05:00:43;;;;;;;19.65;17.95;;;13.70;99.90;;;14.86;95.86;97578.81;5219755;28;20225;-69
2023/05/22 05:03:16;;;;;;;18.90;17.02;;;13.80;99.90;;;15.12;94.99;97576.25;5220923;28;20643;-69
2023/05/22 05:06:15;;;;;;;19.00;17.10;;;14.00;99.90;;;15.16;94.58;97578.09;5227049;28;20604;-69
2023/05/22 05:08:54;;;;;;;17.77;16.20;;;14.10;99.90;;;15.29;93.07;97577.72;5228057;28;20224;-68
2023/05/22 05:11:27;;;;;;;19.23;17.63;;;14.20;99.90;;;15.24;93.86;97568.94;5224780;28;20235;-68
2023/05/22 05:14:00;;;;;;;18.77;17.17;;;14.20;99.90;;;15.53;93.28;97572.50;5226519;28;20228;-68
2023/05/22 05:16:33;;;;;;;18.08;16.48;;;14.40;99.90;;;16.04;91.49;97570.72;5221298;28;20770;-69
2023/05/22 05:19:06;;;;;;;18.10;16.50;;;14.80;99.90;;;16.50;88.89;97562.63;5230817;28;20242;-68
2023/05/22 05:21:39;;;;;;;17.45;15.85;;;15.10;99.90;;;16.95;86.63;97567.38;5229382;28;20225;-68
2023/05/22 05:24:15;;;;;;;17.80;16.15;;;15.50;99.90;;;17.36;84.85;97564.13;5225961;28;20226;-69
2023/05/22 05:26:48;;;;;;;18.20;16.45;;;15.70;99.90;;;17.76;82.63;97566.84;5227835;28;20271;-68
2023/05/22 05:29:21;;;;;;;17.83;16.27;;;16.00;99.90;;;18.13;80.16;97551.38;5229436;28;20633;-68
2023/05/22 05:31:54;;;;;;;16.83;15.32;;;16.20;99.90;;;18.43;78.12;97559.81;5227824;28;20222;-68
2023/05/22 05:34:28;;;;;;;17.45;15.90;;;16.50;99.90;;;18.66;77.33;97568.03;5227856;28;20228;-69
2023/05/22 05:37:02;;;;;;;16.35;14.82;;;16.60;99.90;;;18.93;75.92;97566.88;5227846;28;20252;-69
2023/05/22 05:39:36;;;;;;;15.15;13.95;;;16.90;99.90;;;19.21;74.40;97559.63;5223789;28;20216;-69
2023/05/22 05:42:09;;;;;;;17.40;15.75;;;17.20;99.90;;;19.41;72.82;97565.16;5226801;28;20228;-69
2023/05/22 05:44:42;;;;;;;16.63;15.23;;;17.40;99.90;;;19.54;71.91;97567.09;5224662;28;20217;-68
2023/05/22 05:47:16;;;;;;;16.25;14.65;;;17.50;99.90;;;19.89;70.88;97561.69;5224437;28;20260;-68
2023/05/22 05:49:49;;;;;;;16.58;15.18;;;17.70;99.90;;;20.00;69.43;97557.50;5221039;28;20228;-68
2023/05/22 05:52:25;;;;;;;16.73;15.25;;;17.80;99.90;;;20.21;69.58;97557.81;5223450;28;20965;-69
2023/05/22 05:55:00;;;;;;;16.15;14.75;;;18.00;99.90;;;20.48;67.94;97556.44;5223352;28;20216;-68
2023/05/22 05:57:33;;;;;;;16.20;14.70;;;18.30;99.90;;;20.68;66.86;97560.19;5225465;28;20255;-68
2023/05/22 06:00:10;;;;;;;15.55;14.15;;;18.50;99.90;;;20.85;66.99;97563.00;5222541;28;20264;-68
2023/05/22 06:02:44;;;;;;;15.30;13.95;;;18.60;99.90;;;21.14;65.65;97560.72;5226429;28;20313;-68
2023/05/22 06:05:20;;;;;;;15.02;13.93;;;18.80;99.90;;;21.48;64.10;97565.41;5221105;28;20311;-68
2023/05/22 06:07:53;;;;;;;14.88;13.57;;;19.10;99.90;;;21.74;63.16;97563.03;5222130;28;20274;-68
2023/05/22 06:10:27;;;;;;;15.63;14.30;;;19.30;99.90;;;21.79;62.88;97561.34;5227914;28;20291;-68
2023/05/22 06:13:00;;;;;;;14.55;13.35;;;19.50;99.90;;;22.13;62.14;97569.41;5229070;28;20776;-68
2023/05/22 06:15:33;;;;;;;15.63;14.25;;;19.70;99.90;;;22.60;60.46;97566.22;5228952;28;20248;-68
2023/05/22 06:18:07;;;;;;;15.63;14.25;;;20.10;99.90;;;22.80;60.00;97569.78;5228069;28;20229;-68
2023/05/22 06:20:40;;;;;;;15.85;14.55;;;20.20;99.90;;;23.22;58.12;97569.97;5225983;28;20221;-68
2023/05/22 06:23:14;;;;;;;16.42;14.82;;;20.50;99.90;;;23.64;56.82;97571.75;5229383;28;20217;-68
2023/05/22 06:25:48;;;;;;;15.63;14.32;;;20.80;99.90;;;23.83;55.63;97565.69;5221395;28;20507;-68
2023/05/22 06:28:21;;;;;;;16.33;14.82;;;21.10;99.90;;;24.07;55.40;97566.56;5225272;28;20251;-68
2023/05/22 06:30:55;;;;;;;14.63;13.30;;;21.30;99.90;;;24.33;54.56;97563.03;5227992;28;20228;-68
2023/05/22 06:33:29;;;;;;;15.48;14.07;;;21.50;99.90;;;24.78;52.76;97558.53;5222879;28;20251;-68
2023/05/22 06:36:02;;;;;;;14.63;13.32;;;21.80;99.90;;;24.86;52.35;97560.25;5222561;28;20270;-68
2023/05/22 06:38:36;;;;;;;15.18;13.88;;;22.20;99.90;;;25.03;51.85;97560.16;5220902;28;20224;-68
2023/05/22 06:41:11;;;;;;;14.93;13.63;;;22.50;99.90;;;25.48;50.32;97554.72;5226342;28;20285;-68
2023/05/22 06:43:44;;;;;;;13.43;12.27;;;22.80;99.90;;;25.68;49.96;97558.03;5224222;28;20215;-68
2023/05/22 06:46:17;;;;;;;14.35;13.05;;;22.80;99.90;;;25.82;48.84;97550.06;5224929;28;20315;-68
2023/05/22 06:48:50;;;;;;;13.45;12.35;;;23.20;99.90;;;25.98;49.53;97556.06;5226875;28;20274;-69
2023/05/22 06:51:24;;;;;;;13.27;12.20;;;23.10;99.90;;;25.99;49.14;97556.06;5228955;28;20229;-68
2023/05/22 06:53:57;;;;;;;13.43;12.35;;;23.30;99.90;;;26.27;47.99;97554.03;5220172;28;20261;-68
2023/05/22 06:56:32;;;;;;;12.60;11.60;;;23.50;99.90;;;26.64;47.37;97556.28;5222119;28;20237;-69
2023/05/22 06:59:05;;;;;;;13.40;12.30;;;23.80;99.90;;;26.57;47.21;97561.63;5223653;28;20734;-69
2023/05/22 07:01:40;;;;;;;12.57;11.57;;;24.10;99.90;;;26.88;46.35;97555.13;5223416;28;20586;-69
2023/05/22 07:04:14;;;;;;;12.00;11.10;;;24.10;99.90;;;27.24;45.51;97555.53;5223386;28;20226;-68
2023/05/22 07:06:47;;;;;;;12.80;11.75;;;24.90;99.50;;;27.21;46.48;97555.56;5225940;28;20705;-68
2023/05/22 07:09:20;;;;;;;12.85;11.85;;;24.70;99.60;;;27.27;46.16;97554.63;5220017;28;20213;-68
2023/05/22 07:11:55;;;;;;;13.13;11.93;;;24.60;99.90;;;27.40;46.42;97559.66;5226431;28;20237;-68
2023/05/22 07:14:28;;;;;;;12.50;11.40;;;24.90;99.80;;;27.31;46.47;97562.44;5223903;28;20651;-69
2023/05/22 07:17:01;;;;;;;11.65;10.77;;;24.80;99.80;;;27.47;46.08;97565.72;5224621;28;20638;-69
2023/05/22 07:19:35;;;;;;;11.93;11.02;;;24.90;99.20;;;27.58;45.18;97562.91;5222312;28;20255;-68
2023/05/22 07:22:08;;;;;;;12.07;11.18;;;25.10;98.80;;;27.76;45.13;97567.88;5228112;28;20235;-69
2023/05/22 07:24:41;;;;;;;12.98;11.77;;;25.40;98.70;;;27.91;44.97;97564.16;5225988;28;20266;-69
2023/05/22 07:27:16;;;;;;;12.85;11.75;;;25.30;98.90;;;28.04;45.08;97567.44;5220910;28;20228;-69
2023/05/22 07:29:49;;;;;;;11.15;10.35;;;25.40;98.70;;;27.92;46.18;97571.13;5222152;28;20259;-68
2023/05/22 07:32:22;;;;;;;12.90;11.85;;;25.50;98.90;;;28.08;44.72;97563.88;5224637;28;20233;-69
2023/05/22 07:34:55;;;;;;;12.30;11.40;;;25.50;98.30;;;27.89;45.31;97565.94;5227856;28;20270;-69
2023/05/22 07:37:28;;;;;;;13.07;11.98;;;25.40;98.20;;;28.35;44.24;97564.25;5231298;28;20710;-69
2023/05/22 07:40:02;;;;;;;12.43;11.45;;;25.50;97.90;;;28.08;44.22;97558.63;5226535;28;20216;-69
2023/05/22 07:42:37;;;;;;;12.02;11.02;;;25.40;98.00;;;27.66;45.46;97568.91;5225195;28;20597;-69
2023/05/22 07:45:11;;;;;;;12.50;11.57;;;25.10;98.70;;;27.64;45.45;97573.31;5226363;28;20590;-69
2023/05/22 07:47:44;;;;;;;12.20;11.20;;;24.90;99.10;;;28.13;44.73;97562.03;5233461;28;20322;-69
2023/05/22 07:50:17;;;;;;;12.45;11.35;;;25.10;98.50;;;28.67;43.48;97561.94;5226516;28;20625;-69
2023/05/22 07:52:50;;;;;;;12.05;11.05;;;25.40;98.20;;;28.75;43.76;97561.75;5227538;28;20224;-69
2023/05/22 07:55:23;;;;;;;11.57;10.68;;;25.70;98.60;;;29.02;42.31;97565.59;5218910;28;20319;-69
2023/05/22 07:57:58;;;;;;;12.32;11.38;;;25.80;97.70;;;28.75;43.82;97561.75;5219555;28;20220;-69
2023/05/22 08:00:31;;;;;;;11.95;10.75;;;25.90;97.80;;;29.09;42.82;97563.72;5222406;28;20236;-69
2023/05/22 08:03:04;;;;;;;11.77;10.88;;;26.10;97.50;;;29.50;41.90;97568.03;5222464;28;20217;-69
2023/05/22 08:05:37;;;;;;;11.93;10.93;;;26.20;97.10;;;29.42;40.99;97570.88;5223852;28;20588;-69
2023/05/22 08:08:11;;;;;;;12.00;11.10;;;26.60;96.20;;;29.52;41.85;97575.91;5218391;28;20489;-69
2023/05/22 08:10:44;;;;;;;12.52;11.63;;;26.60;96.30;;;29.17;42.26;97570.53;5223504;28;20641;-69
2023/05/22 08:13:37;;;;;;;12.68;11.77;;;26.80;96.20;;;28.87;43.34;97561.53;5219952;28;20232;-68
2023/05/22 08:16:10;;;;;;;12.38;11.45;;;26.90;96.00;;;28.73;43.68;97569.69;5225152;28;20640;-69
2023/05/22 08:18:43;;;;;;;12.45;11.55;;;26.80;96.00;;;28.95;43.43;97569.22;5227184;28;20274;-69
2023/05/22 08:21:16;;;;;;;12.00;11.00;;;26.80;95.90;;;28.81;42.67;97566.03;5221150;28;20700;-69
2023/05/22 08:23:50;;;;;;;12.55;11.55;;;26.80;95.70;;;28.54;44.22;97570.09;5224546;28;20224;-68
2023/05/22 08:26:23;;;;;;;12.75;11.80;;;26.80;95.90;;;28.51;43.52;97568.38;5223203;28;20263;-69
2023/05/22 08:28:57;;;;;;;12.52;11.52;;;26.80;95.50;;;28.54;44.47;97570.09;5231834;28;20220;-69
2023/05/22 08:31:33;;;;;;;12.50;11.50;;;26.80;96.00;;;28.66;43.62;97568.06;5225471;28;20216;-69
2023/05/22 08:34:06;;;;;;;12.88;11.95;;;27.10;95.80;;;28.67;43.86;97572.44;5233768;28;20596;-69
2023/05/22 08:36:39;;;;;;;13.63;12.40;;;27.10;95.20;;;28.54;44.36;97570.94;5221957;28;20235;-69
2023/05/22 08:39:13;;;;;;;12.25;11.25;;;27.20;95.10;;;28.52;44.29;97567.47;5231088;28;20242;-69
2023/05/22 08:41:46;;;;;;;13.05;12.02;;;27.10;95.20;;;28.28;43.76;97559.13;5220851;28;20224;-69
2023/05/22 08:44:21;;;;;;;14.25;13.05;;;26.80;95.10;;;28.24;44.76;97560.09;5225477;28;20270;-69
2023/05/22 08:46:55;;;;;;;13.52;12.40;;;26.90;95.30;;;28.33;43.93;97556.41;5223709;28;20227;-69
2023/05/22 08:49:28;;;;;;;13.48;12.38;;;27.40;94.60;;;28.30;44.61;97553.81;5224477;28;20207;-68
2023/05/22 08:52:09;;;;;;;14.25;13.00;;;27.30;95.00;;;28.25;45.22;97553.91;5220592;28;20252;-69
2023/05/22 08:54:45;;;;;;;14.18;13.07;;;27.20;95.20;;;28.43;44.40;97563.25;5219576;28;20275;-69
2023/05/22 08:57:20;;;;;;;14.45;13.25;;;27.40;95.10;;;28.30;44.84;97562.59;5221790;28;20689;-69
2023/05/22 08:59:54;;;;;;;15.70;14.55;;;27.10;95.50;;;28.23;45.23;97553.06;5226333;28;20220;-69
2023/05/22 09:02:28;;;;;;;14.02;12.80;;;27.00;95.40;;;28.22;45.61;97553.13;5224210;28;20228;-69
2023/05/22 09:05:04;;;;;;;14.82;13.52;;;27.10;95.80;;;28.09;45.30;97555.09;5228949;28;20317;-69
2023/05/22 09:07:39;;;;;;;14.50;13.40;;;26.90;95.60;;;28.05;46.32;97546.41;5220645;28;20278;-69
2023/05/22 09:10:13;;;;;;;14.10;13.00;;;27.00;95.70;;;28.00;46.87;97555.25;5218234;28;20658;-69
2023/05/22 09:13:06;;;;;;;15.20;13.90;;;26.80;96.20;;;28.26;44.94;97553.00;5224322;28;20248;-69
2023/05/22 09:15:41;;;;;;;14.35;13.20;;;27.30;95.10;;;28.28;45.38;97556.50;5227825;28;20230;-69
2023/05/22 09:18:14;;;;;;;14.23;13.07;;;27.30;95.00;;;28.45;45.26;97547.47;5221343;28;20341;-69
2023/05/22 09:20:47;;;;;;;14.90;13.75;;;27.50;95.40;;;28.35;44.19;97549.34;5231310;28;20225;-69
2023/05/22 09:23:21;;;;;;;15.25;14.05;;;27.40;94.50;;;28.39;44.61;97551.03;5226240;28;20225;-69
2023/05/22 09:25:56;;;;;;;14.68;13.43;;;27.60;94.50;;;28.42;43.81;97543.13;5224353;28;20227;-70
2023/05/22 09:28:34;;;;;;;14.10;13.07;;;27.40;94.40;;;28.40;45.58;97544.00;5224269;28;20286;-69
2023/05/22 09:31:08;;;;;;;14.90;13.75;;;27.30;95.20;;;28.49;44.27;97541.22;5224787;28;20232;-69
2023/05/22 09:33:44;;;;;;;14.43;13.25;;;27.30;94.70;;;28.46;44.73;97536.91;5225507;28;20228;-69
2023/05/22 09:36:17;;;;;;;14.43;13.32;;;27.40;94.60;;;28.30;43.92;97538.94;5222392;28;20282;-69
2023/05/22 09:38:53;;;;;;;14.32;13.13;;;27.20;94.20;;;28.21;44.87;97540.84;5221550;28;20660;-69
2023/05/22 09:41:27;;;;;;;13.07;11.98;;;27.10;94.30;;;28.16;44.94;97540.94;5223826;28;20656;-69
2023/05/22 09:44:01;;;;;;;14.63;13.50;;;27.30;94.70;;;28.19;44.82;97538.25;5228082;28;20225;-69
2023/05/22 09:46:41;;;;;;;13.82;12.73;;;27.30;94.30;;;28.34;44.95;97538.88;5226722;28;20221;-69
2023/05/22 09:49:15;;;;;;;13.65;12.50;;;27.50;94.70;;;28.34;45.02;97542.38;5225877;28;20676;-69
2023/05/22 09:51:54;;;;;;;12.95;11.95;;;27.50;94.70;;;28.61;43.54;97543.59;5224394;28;20309;-69
2023/05/22 09:54:27;;;;;;;13.75;12.45;;;27.70;93.90;;;28.42;43.79;97537.00;5227774;28;20755;-69
2023/05/22 09:57:02;;;;;;;14.13;12.85;;;27.50;93.80;;;28.40;45.18;97533.50;5228164;28;20270;-69
2023/05/22 09:59:39;;;;;;;14.00;12.95;;;27.60;94.30;;;28.66;43.99;97531.22;5228728;28;20305;-69
2023/05/22 10:02:13;;;;;;;14.50;13.25;;;27.70;93.60;;;28.58;43.59;97527.88;5216754;28;20228;-69
2023/05/22 10:04:49;;;;;;;13.40;12.40;;;27.70;93.30;;;28.66;42.52;97530.38;5219395;28;20303;-68
2023/05/22 10:07:27;;;;;;;12.70;11.70;;;27.70;93.00;;;28.41;44.68;97532.59;5219940;28;20234;-68
2023/05/22 10:10:08;;;;;;;14.05;12.93;;;27.50;94.00;;;28.41;44.44;97524.69;5220890;28;20232;-67
2023/05/22 10:12:45;;;;;;;13.27;12.18;;;27.50;93.90;;;28.43;44.50;97528.22;5219426;28;20240;-69
2023/05/22 10:15:18;;;;;;;13.82;12.70;;;27.40;93.70;;;28.29;43.67;97531.06;5218589;28;20766;-68
2023/05/22 10:17:53;;;;;;;14.13;13.02;;;27.40;93.50;;;28.03;44.99;97523.66;5221280;28;20231;-69
2023/05/22 10:20:28;;;;;;;13.77;12.57;;;27.20;94.10;;;28.13;45.37;97529.59;5219600;28;20236;-70
2023/05/22 10:23:03;;;;;;;14.32;13.20;;;27.20;94.50;;;28.20;45.48;97526.84;5217452;28;20315;-69
2023/05/22 10:25:38;;;;;;;13.32;12.05;;;27.40;94.40;;;28.27;44.19;97520.59;5223067;28;20224;-69
2023/05/22 10:28:15;;;;;;;13.32;12.27;;;27.50;93.70;;;28.11;43.69;97523.53;5223128;28;20220;-70
2023/05/22 10:30:55;;;;;;;13.82;12.52;;;27.20;93.40;;;28.02;45.11;97521.94;5217665;28;20372;-69
2023/05/22 10:33:34;;;;;;;12.30;11.30;;;27.10;93.90;;;28.01;45.25;97530.69;5219237;28;20220;-68
2023/05/22 10:36:12;;;;;;;13.80;12.70;;;27.00;94.50;;;28.17;44.61;97521.66;5223771;28;20230;-69
2023/05/22 10:39:00;;;;;;;13.50;12.50;;;27.30;94.10;;;28.28;43.50;97519.69;5222850;28;20240;-68